Time;durP1;ratioP1;P1;durP2;ratioP2;P2;SDS_P1;SDS_P2;PMS_P1;PMS_P2;Temp;Humidity;BMP_temperature;BMP_pressure;BME280_temperature;BME280_humidity;BME280_pressure;Samples;Min_cycle;Max_cycle;Signal;HPM_P1;HPM_P2
2022/02/12 00:00:33;;;;;;;9.38;5.72;;;;;;;9.43;60.60;99538.25;5091988;28;20044;-95
2022/02/12 00:03:01;;;;;;;10.00;5.68;;;;;;;9.28;60.68;99510.97;5108018;28;20055;-95
2022/02/12 00:05:27;;;;;;;10.05;5.68;;;;;;;9.29;60.40;99510.97;5092381;28;20047;-94
2022/02/12 00:07:53;;;;;;;10.60;5.53;;;;;;;9.44;60.36;99529.38;5091259;28;20139;-94
2022/02/12 00:10:20;;;;;;;8.50;5.30;;;;;;;9.30;60.57;99520.66;5090826;28;20055;-95
2022/02/12 00:12:46;;;;;;;10.10;6.07;;;;;;;9.18;61.29;99511.06;5091748;28;20039;-94
2022/02/12 00:15:12;;;;;;;11.48;6.05;;;;;;;9.23;60.85;99521.63;5091052;28;20044;-94
2022/02/12 00:17:38;;;;;;;8.82;5.30;;;;;;;9.29;61.09;99528.66;5091027;28;20063;-95
2022/02/12 00:20:06;;;;;;;10.10;5.57;;;;;;;9.27;61.57;99527.81;5091012;28;20051;-94
2022/02/12 00:22:32;;;;;;;9.43;5.60;;;;;;;9.35;60.74;99539.22;5080549;28;20036;-94
2022/02/12 00:24:58;;;;;;;10.00;6.07;;;;;;;9.25;61.22;99523.38;5077518;28;20440;-94
2022/02/12 00:27:24;;;;;;;10.55;6.15;;;;;;;9.14;61.39;99509.34;5077679;28;20040;-95
2022/02/12 00:29:49;;;;;;;9.85;5.93;;;;;;;9.10;61.32;99510.25;5077896;28;20481;-93
2022/02/12 00:32:15;;;;;;;14.18;7.47;;;;;;;9.10;61.40;99512.91;5077839;28;20068;-95
2022/02/12 00:34:42;;;;;;;10.48;6.22;;;;;;;9.14;61.43;99525.25;5078199;28;20432;-94
2022/02/12 00:37:09;;;;;;;12.65;6.38;;;;;;;9.10;61.88;99525.31;5077414;28;20468;-95
2022/02/12 00:39:35;;;;;;;11.77;6.90;;;;;;;9.02;61.79;99513.00;5077880;28;20048;-96
2022/02/12 00:42:01;;;;;;;11.15;6.70;;;;;;;9.03;62.07;99521.81;5077923;28;20037;-94
2022/02/12 00:44:27;;;;;;;10.98;6.40;;;;;;;9.01;62.02;99518.31;5077610;28;20044;-93
2022/02/12 00:46:55;;;;;;;10.50;6.28;;;;;;;9.10;61.87;99530.59;5077843;28;20091;-93
2022/02/12 00:49:21;;;;;;;9.43;5.75;;;;;;;9.08;60.83;99504.06;5079224;28;20102;-94
2022/02/12 00:51:47;;;;;;;10.82;6.57;;;;;;;9.07;60.93;99497.03;5078253;28;20048;-94
2022/02/12 00:54:14;;;;;;;12.48;6.35;;;;;;;9.19;61.15;99522.56;5077315;28;20037;-95
2022/02/12 00:56:40;;;;;;;13.57;7.57;;;;;;;9.04;61.32;99497.94;5078065;28;20064;-94
2022/02/12 00:59:06;;;;;;;12.23;5.82;;;;;;;9.01;61.47;99494.44;5077372;28;20467;-95
2022/02/12 01:01:33;;;;;;;10.65;5.60;;;;;;;8.98;61.23;99491.81;5076734;28;20037;-95
2022/02/12 01:03:59;;;;;;;10.15;5.72;;;;;;;9.05;60.91;99494.38;5078472;28;20048;-95
2022/02/12 01:06:25;;;;;;;9.13;5.40;;;;;;;9.13;60.31;99496.97;5078413;28;20049;-94
2022/02/12 01:08:51;;;;;;;9.02;5.10;;;;;;;9.17;60.61;99503.13;5076905;28;20045;-93
2022/02/12 01:11:18;;;;;;;8.50;5.05;;;;;;;9.09;60.88;99494.38;5076502;28;20080;-94
2022/02/12 01:13:45;;;;;;;9.55;5.18;;;;;;;9.10;60.64;99496.97;5076791;28;20070;-93
2022/02/12 01:16:11;;;;;;;10.25;5.10;;;;;;;9.32;59.99;99518.88;5077931;28;20044;-95
2022/02/12 01:18:37;;;;;;;9.35;4.93;;;;;;;9.17;60.15;99500.47;5077468;28;20076;-94
2022/02/12 01:21:03;;;;;;;12.00;4.50;;;;;;;9.25;59.96;99502.13;5076867;28;20063;-95
2022/02/12 01:23:29;;;;;;;9.02;4.80;;;;;;;9.25;59.66;99507.44;5077005;28;20040;-96
2022/02/12 01:25:54;;;;;;;8.70;4.38;;;;;;;9.23;60.00;99508.38;5076260;28;20436;-95
2022/02/12 01:28:22;;;;;;;8.35;4.55;;;;;;;9.19;59.71;99496.88;5076200;28;20094;-94
2022/02/12 01:30:48;;;;;;;9.15;4.53;;;;;;;9.33;59.77;99517.13;5076184;28;20040;-93
2022/02/12 01:33:15;;;;;;;9.68;4.75;;;;;;;9.33;59.20;99520.66;5075502;28;20041;-94
2022/02/12 01:35:41;;;;;;;7.28;4.65;;;;;;;9.20;59.62;99497.78;5076551;28;20501;-95
2022/02/12 01:38:07;;;;;;;12.70;5.75;;;;;;;9.16;59.65;99504.91;5076618;28;20390;-95
2022/02/12 01:40:33;;;;;;;8.85;4.93;;;;;;;9.18;60.30;99510.19;5076463;28;20115;-95
2022/02/12 01:43:02;;;;;;;9.27;5.50;;;;;;;9.07;60.03;99497.03;5076571;28;20040;-94
2022/02/12 01:45:30;;;;;;;9.10;5.20;;;;;;;9.09;59.86;99489.94;5076130;28;20048;-93
2022/02/12 01:47:56;;;;;;;9.15;5.38;;;;;;;9.00;60.10;99496.22;5075805;28;20270;-94
2022/02/12 01:50:22;;;;;;;10.88;5.97;;;;;;;8.93;59.66;99498.91;5076727;28;20565;-93
2022/02/12 01:52:49;;;;;;;13.13;6.15;;;;;;;8.93;59.71;99506.88;5076550;28;20048;-94
2022/02/12 01:55:15;;;;;;;11.32;5.45;;;;;;;8.81;59.84;99492.81;5075162;28;20532;-95
2022/02/12 01:57:41;;;;;;;10.43;5.88;;;;;;;8.88;60.13;99508.69;5076419;28;20045;-95
2022/02/12 02:00:10;;;;;;;10.25;5.80;;;;;;;8.85;60.29;99517.56;5076839;28;20043;-94
2022/02/12 02:02:37;;;;;;;13.77;6.45;;;;;;;8.64;60.56;99500.91;5076676;28;20110;-94
2022/02/12 02:05:04;;;;;;;12.73;6.10;;;;;;;8.71;60.73;99528.25;5076554;28;20485;-94
2022/02/12 02:07:30;;;;;;;11.98;5.93;;;;;;;8.59;61.40;99526.59;5075835;28;20501;-94
2022/02/12 02:09:56;;;;;;;10.77;6.00;;;;;;;8.43;61.64;99507.22;5075614;28;20040;-94
2022/02/12 02:12:21;;;;;;;14.50;6.85;;;;;;;8.50;61.97;99526.66;5075316;28;20052;-95
2022/02/12 02:14:47;;;;;;;11.52;5.78;;;;;;;8.30;62.06;99497.56;5075680;28;20493;-95
2022/02/12 02:17:13;;;;;;;10.23;6.07;;;;;;;8.37;61.78;99519.59;5075837;28;20401;-95
2022/02/12 02:19:41;;;;;;;8.95;5.25;;;;;;;8.42;61.18;99524.03;5075690;28;20036;-94
2022/02/12 02:22:09;;;;;;;10.38;5.03;;;;;;;8.34;61.38;99509.03;5075177;28;20546;-94
2022/02/12 02:24:37;;;;;;;9.77;5.03;;;;;;;8.33;60.76;99499.34;5076671;28;20098;-95
2022/02/12 02:27:05;;;;;;;8.68;4.60;;;;;;;8.38;60.82;99494.88;5078917;28;20048;-95
2022/02/12 02:29:31;;;;;;;11.45;4.35;;;;;;;8.49;60.41;99513.41;5077040;28;20036;-93
2022/02/12 02:31:57;;;;;;;9.80;4.78;;;;;;;8.42;61.10;99504.63;5075878;28;20044;-94
2022/02/12 02:34:22;;;;;;;9.48;4.70;;;;;;;8.21;61.30;99490.56;5075303;28;20433;-95
2022/02/12 02:36:51;;;;;;;8.20;4.28;;;;;;;8.32;61.71;99532.91;5076297;28;20040;-94
2022/02/12 02:39:17;;;;;;;9.90;4.22;;;;;;;8.41;61.14;99519.66;5075471;28;20131;-94
2022/02/12 02:41:44;;;;;;;9.13;4.13;;;;;;;8.39;61.06;99524.03;5075872;28;20071;-94
2022/02/12 02:44:10;;;;;;;5.50;3.65;;;;;;;8.27;61.36;99507.34;5074684;28;20048;-92
2022/02/12 02:46:36;;;;;;;9.48;3.78;;;;;;;8.28;61.70;99528.50;5074640;28;20083;-93
2022/02/12 02:49:02;;;;;;;10.20;4.50;;;;;;;8.08;61.83;99514.50;5075333;28;20533;-94
2022/02/12 02:57:46;;;;;;;10.63;5.60;;;;;;;7.70;64.55;99549.94;5092579;27;20374;-95
2022/02/12 03:00:13;;;;;;;10.98;5.10;;;;;;;7.55;65.00;99538.53;5092848;28;20072;-94
2022/02/12 03:02:38;;;;;;;7.53;4.70;;;;;;;7.50;65.54;99540.28;5093068;28;20052;-95
2022/02/12 03:05:05;;;;;;;8.13;4.63;;;;;;;7.56;65.63;99558.78;5092442;28;20376;-95
2022/02/12 03:07:31;;;;;;;11.57;5.10;;;;;;;7.42;66.01;99534.16;5092997;28;20405;-95
2022/02/12 03:09:57;;;;;;;10.05;5.15;;;;;;;7.45;66.33;99562.38;5092230;28;20033;-95
2022/02/12 03:12:23;;;;;;;9.88;4.80;;;;;;;7.18;66.88;99533.28;5091703;28;20036;-95
2022/02/12 03:14:50;;;;;;;10.60;4.93;;;;;;;7.17;67.39;99538.56;5091913;28;20040;-96
2022/02/12 03:17:16;;;;;;;9.02;4.90;;;;;;;7.07;67.45;99535.06;5091027;28;20036;-94
2022/02/12 03:19:42;;;;;;;10.73;5.03;;;;;;;7.18;67.23;99538.59;5092216;28;20070;-93
2022/02/12 03:22:07;;;;;;;12.15;5.90;;;;;;;7.23;67.56;99553.56;5092540;28;20075;-94
2022/02/12 03:24:33;;;;;;;10.70;5.60;;;;;;;7.26;67.77;99570.31;5093110;28;20047;-93
2022/02/12 03:26:59;;;;;;;9.55;5.32;;;;;;;7.13;68.22;99560.63;5092444;28;20474;-93
2022/02/12 03:29:25;;;;;;;11.82;5.15;;;;;;;7.11;68.23;99552.72;5091937;28;20048;-93
2022/02/12 03:31:52;;;;;;;9.98;5.43;;;;;;;6.97;68.92;99551.81;5090397;28;20512;-94
2022/02/12 03:34:18;;;;;;;8.80;4.72;;;;;;;6.87;69.42;99553.56;5092381;28;20041;-94
2022/02/12 03:36:44;;;;;;;10.60;5.72;;;;;;;6.81;69.68;99544.75;5092327;28;20074;-93
2022/02/12 03:39:10;;;;;;;11.93;6.25;;;;;;;6.87;70.16;99568.56;5092462;28;20555;-95
2022/02/12 03:41:35;;;;;;;12.00;6.20;;;;;;;6.65;70.90;99562.38;5092863;28;20056;-95
2022/02/12 03:44:01;;;;;;;10.27;5.80;;;;;;;6.70;71.55;99569.44;5092195;28;20044;-93
2022/02/12 03:46:27;;;;;;;10.35;6.63;;;;;;;6.72;71.97;99580.91;5091935;28;20052;-94
2022/02/12 03:48:54;;;;;;;11.95;6.40;;;;;;;6.77;72.42;99594.13;5092060;28;20044;-94
2022/02/12 03:51:21;;;;;;;12.13;5.90;;;;;;;6.69;72.81;99586.16;5091810;28;20048;-94
2022/02/12 03:53:47;;;;;;;9.63;6.05;;;;;;;6.58;73.71;99582.63;5091143;28;20139;-92
2022/02/12 03:56:14;;;;;;;11.13;7.18;;;;;;;6.43;74.69;99579.94;5091873;28;20454;-94
2022/02/12 03:58:40;;;;;;;10.25;7.10;;;;;;;6.34;75.39;99576.38;5091478;28;20041;-92
2022/02/12 04:01:05;;;;;;;12.48;7.20;;;;;;;6.33;76.05;99577.28;5091232;28;20043;-94
2022/02/12 04:03:31;;;;;;;11.18;7.90;;;;;;;6.36;76.62;99582.56;5092736;28;20401;-92
2022/02/12 04:05:59;;;;;;;11.05;7.55;;;;;;;6.30;77.35;99566.69;5092600;28;20064;-93
2022/02/12 04:08:25;;;;;;;15.10;7.72;;;;;;;6.34;77.97;99580.78;5080928;28;20094;-94
2022/02/12 04:10:51;;;;;;;13.20;7.30;;;;;;;6.42;78.45;99588.72;5078534;28;20058;-93
2022/02/12 04:13:18;;;;;;;12.65;7.78;;;;;;;6.28;78.92;99568.44;5077684;28;20052;-94
2022/02/12 04:15:44;;;;;;;12.63;7.55;;;;;;;6.41;79.18;99581.69;5077579;28;20165;-94
2022/02/12 04:18:11;;;;;;;15.57;7.88;;;;;;;6.38;79.77;99574.66;5077686;28;20556;-92
2022/02/12 04:20:37;;;;;;;15.20;8.15;;;;;;;6.44;79.95;99586.97;5077297;28;20048;-92
2022/02/12 04:23:04;;;;;;;12.70;7.43;;;;;;;6.48;79.97;99588.75;5077401;28;20090;-93
2022/02/12 04:25:30;;;;;;;16.30;8.13;;;;;;;6.48;80.34;99583.47;5077672;28;20052;-94
2022/02/12 04:27:56;;;;;;;16.02;8.27;;;;;;;6.49;80.14;99595.81;5077005;28;20048;-94
2022/02/12 04:30:22;;;;;;;14.13;7.93;;;;;;;6.36;80.81;99576.41;5077282;28;20044;-93
2022/02/12 04:32:48;;;;;;;14.68;8.57;;;;;;;6.68;80.51;99597.63;5077789;28;20052;-91
2022/02/12 04:35:15;;;;;;;14.70;8.30;;;;;;;6.56;80.47;99579.97;5077382;28;20139;-91
2022/02/12 04:37:41;;;;;;;14.43;8.43;;;;;;;6.57;80.74;99572.91;5077337;28;20045;-92
2022/02/12 04:40:10;;;;;;;13.38;8.43;;;;;;;6.62;80.91;99584.38;5077336;28;20041;-92
2022/02/12 04:42:36;;;;;;;14.85;7.40;;;;;;;6.69;81.27;99595.84;5077810;28;20604;-94
2022/02/12 04:45:03;;;;;;;14.10;8.27;;;;;;;6.73;81.70;99614.34;5076347;28;20062;-94
2022/02/12 04:47:29;;;;;;;17.15;8.70;;;;;;;6.64;81.90;99592.34;5076897;28;20044;-93
2022/02/12 04:49:55;;;;;;;15.27;9.93;;;;;;;6.72;82.03;99599.41;5077343;28;20079;-92
2022/02/12 04:52:21;;;;;;;16.63;8.95;;;;;;;6.83;81.74;99615.28;5076907;28;20044;-92
2022/02/12 04:54:47;;;;;;;18.20;10.55;;;;;;;6.81;82.07;99614.38;5076304;28;20045;-89
2022/02/12 04:57:15;;;;;;;18.23;9.35;;;;;;;6.62;82.17;99594.97;5076540;28;20493;-93
2022/02/12 04:59:41;;;;;;;18.85;8.77;;;;;;;6.62;82.90;99587.03;5076398;28;20044;-93
2022/02/12 05:02:07;;;;;;;14.77;8.85;;;;;;;6.73;82.98;99603.78;5076184;28;20217;-93
2022/02/12 05:04:33;;;;;;;18.85;8.85;;;;;;;6.58;83.68;99588.78;5076935;28;20059;-94
2022/02/12 05:06:59;;;;;;;20.05;9.98;;;;;;;6.57;84.17;99592.31;5077103;28;20037;-94
2022/02/12 05:09:25;;;;;;;17.55;8.82;;;;;;;6.76;84.64;99624.06;5076779;28;20140;-91
2022/02/12 05:11:51;;;;;;;16.13;9.63;;;;;;;6.54;85.29;99587.00;5077372;28;20040;-93
2022/02/12 05:14:19;;;;;;;17.30;9.90;;;;;;;6.51;85.57;99586.13;5076742;28;20139;-94
2022/02/12 05:16:45;;;;;;;15.48;7.97;;;;;;;6.68;85.71;99616.13;5077380;28;20067;-95
2022/02/12 05:19:11;;;;;;;15.45;8.15;;;;;;;6.61;85.37;99601.09;5075566;28;20450;-93
2022/02/12 05:21:37;;;;;;;14.80;8.40;;;;;;;6.61;85.37;99608.16;5077695;28;20055;-93
2022/02/12 05:24:04;;;;;;;16.30;8.07;;;;;;;6.62;85.42;99610.81;5077709;28;20040;-93
2022/02/12 05:26:30;;;;;;;13.40;7.80;;;;;;;6.53;85.69;99601.09;5077022;28;20044;-94
2022/02/12 05:28:56;;;;;;;15.60;7.60;;;;;;;6.61;85.55;99606.41;5076812;28;20078;-92
2022/02/12 05:31:23;;;;;;;15.32;8.52;;;;;;;6.65;85.55;99620.50;5075744;28;20040;-92
2022/02/12 05:33:49;;;;;;;12.48;7.00;;;;;;;6.72;85.63;99633.75;5075872;28;20498;-94
2022/02/12 05:36:15;;;;;;;12.60;6.70;;;;;;;6.68;85.85;99629.34;5075787;28;20043;-92
2022/02/12 05:38:41;;;;;;;14.73;7.00;;;;;;;6.76;84.96;99624.94;5076936;28;20103;-93
2022/02/12 05:41:08;;;;;;;14.27;7.25;;;;;;;6.76;85.00;99626.69;5076625;28;20037;-94
2022/02/12 05:43:34;;;;;;;11.68;6.47;;;;;;;6.64;85.19;99598.50;5076938;28;20051;-94
2022/02/12 05:46:01;;;;;;;12.02;6.20;;;;;;;6.68;84.92;99597.63;5076355;28;20055;-93
2022/02/12 05:48:29;;;;;;;12.55;5.88;;;;;;;6.67;84.49;99590.56;5076326;28;20044;-93
2022/02/12 05:50:55;;;;;;;13.65;6.43;;;;;;;6.80;84.85;99615.25;5077524;28;20036;-93
2022/02/12 05:53:21;;;;;;;11.32;5.30;;;;;;;6.82;84.40;99613.50;5076977;28;20049;-93
2022/02/12 05:55:47;;;;;;;12.35;5.18;;;;;;;6.93;83.94;99619.69;5076829;28;20041;-93
2022/02/12 05:58:13;;;;;;;13.52;5.43;;;;;;;6.97;83.96;99623.22;5076588;28;20045;-94
2022/02/12 06:00:39;;;;;;;15.13;5.40;;;;;;;6.92;84.73;99632.91;5076564;28;20040;-94
2022/02/12 06:03:05;;;;;;;9.45;5.55;;;;;;;6.73;84.84;99598.50;5077070;28;20073;-93
2022/02/12 06:05:33;;;;;;;12.52;5.20;;;;;;;6.75;84.33;99591.47;5077635;28;20044;-94
2022/02/12 06:08:01;;;;;;;12.10;5.97;;;;;;;6.75;84.50;99604.69;5076852;28;20044;-93
2022/02/12 06:10:27;;;;;;;13.25;5.60;;;;;;;6.91;84.39;99623.19;5076451;28;20076;-94
2022/02/12 06:12:53;;;;;;;13.35;4.93;;;;;;;6.80;84.08;99604.69;5076470;28;20041;-92
2022/02/12 06:15:20;;;;;;;8.18;5.22;;;;;;;6.89;84.03;99625.84;5075904;28;20131;-92
2022/02/12 06:17:46;;;;;;;11.45;5.63;;;;;;;6.83;84.16;99617.00;5076841;28;20074;-93
2022/02/12 06:20:12;;;;;;;9.70;5.32;;;;;;;6.81;84.47;99634.63;5076029;28;20048;-94
2022/02/12 06:22:39;;;;;;;8.60;5.10;;;;;;;6.83;84.64;99635.53;5076960;28;20048;-94
2022/02/12 06:25:06;;;;;;;10.77;5.22;;;;;;;6.99;84.61;99663.75;5076143;28;20041;-94
2022/02/12 06:27:32;;;;;;;9.13;4.88;;;;;;;7.00;84.22;99670.81;5076271;28;20085;-94
2022/02/12 06:29:58;;;;;;;11.27;4.63;;;;;;;6.99;83.97;99653.19;5076531;28;20119;-94
2022/02/12 06:32:24;;;;;;;10.70;5.40;;;;;;;7.11;83.89;99679.66;5075803;28;20037;-94
2022/02/12 06:34:51;;;;;;;10.15;5.20;;;;;;;6.97;83.68;99649.66;5076560;28;20044;-94
2022/02/12 06:37:18;;;;;;;9.10;4.57;;;;;;;7.04;83.36;99651.41;5075413;28;20052;-93
2022/02/12 06:39:45;;;;;;;11.00;4.60;;;;;;;7.04;83.30;99662.00;5075271;28;20041;-95
2022/02/12 06:42:11;;;;;;;9.55;4.65;;;;;;;7.13;83.28;99669.06;5075850;28;20584;-94
2022/02/12 06:44:37;;;;;;;10.38;5.00;;;;;;;7.01;83.11;99656.72;5074750;28;20068;-94
2022/02/12 06:47:03;;;;;;;14.15;5.35;;;;;;;7.09;83.07;99672.59;5075915;28;20040;-94
2022/02/12 06:49:29;;;;;;;8.85;4.80;;;;;;;7.22;82.77;99695.53;5075119;28;20040;-94
2022/02/12 06:51:55;;;;;;;11.13;4.85;;;;;;;7.37;82.05;99702.59;5075941;28;20916;-93
2022/02/12 06:54:21;;;;;;;8.15;5.00;;;;;;;7.39;81.76;99700.84;5074905;28;20505;-94
2022/02/12 06:56:48;;;;;;;11.85;4.78;;;;;;;7.37;81.89;99686.72;5074265;28;20401;-93
2022/02/12 06:59:14;;;;;;;11.77;4.50;;;;;;;7.55;81.09;99714.97;5074969;28;20128;-92
2022/02/12 07:01:40;;;;;;;9.43;4.57;;;;;;;7.64;80.69;99706.16;5055215;28;20081;-92
2022/02/12 07:04:06;;;;;;;9.38;4.80;;;;;;;7.82;80.08;99722.91;5070834;28;20131;-94
2022/02/12 07:06:32;;;;;;;13.07;5.65;;;;;;;7.67;79.83;99685.84;5076919;28;20062;-93
2022/02/12 07:08:57;;;;;;;10.10;4.82;;;;;;;7.79;79.59;99709.66;5076820;28;20486;-93
2022/02/12 07:11:23;;;;;;;11.95;4.40;;;;;;;7.75;79.71;99701.72;5075710;28;20060;-95
2022/02/12 07:13:50;;;;;;;9.48;4.63;;;;;;;7.85;79.98;99729.97;5076271;28;20068;-95
2022/02/12 07:16:16;;;;;;;8.52;5.13;;;;;;;7.86;79.67;99737.03;5075750;28;20375;-94
2022/02/12 07:18:42;;;;;;;8.93;5.00;;;;;;;7.91;79.65;99737.00;5076079;28;20123;-93
2022/02/12 07:21:08;;;;;;;11.57;5.72;;;;;;;7.94;79.79;99739.69;5076177;28;20060;-94
2022/02/12 07:23:34;;;;;;;12.20;6.70;;;;;;;7.86;80.17;99725.56;5078451;28;20092;-95
2022/02/12 07:26:00;;;;;;;11.40;6.25;;;;;;;7.88;79.85;99727.31;5077588;28;20040;-95
2022/02/12 07:28:27;;;;;;;10.80;5.22;;;;;;;7.87;79.74;99728.22;5075779;28;20501;-93
2022/02/12 07:30:55;;;;;;;13.68;6.68;;;;;;;7.90;79.90;99736.13;5076006;28;20045;-93
2022/02/12 07:33:21;;;;;;;12.90;6.10;;;;;;;7.94;78.86;99731.75;5076392;28;20052;-93
2022/02/12 07:35:49;;;;;;;13.23;6.50;;;;;;;8.06;78.71;99750.25;5079422;28;20048;-92
2022/02/12 07:38:15;;;;;;;10.57;5.65;;;;;;;8.14;78.89;99747.59;5080329;28;20045;-94
2022/02/12 07:40:41;;;;;;;9.45;6.10;;;;;;;8.06;78.96;99746.72;5080687;28;20049;-94
2022/02/12 07:43:07;;;;;;;10.07;5.25;;;;;;;8.08;78.50;99726.41;5078235;28;20044;-93
2022/02/12 07:45:33;;;;;;;9.02;5.22;;;;;;;8.20;78.13;99737.88;5079865;28;20507;-95
2022/02/12 07:48:00;;;;;;;16.10;8.32;;;;;;;8.18;77.47;99725.50;5082310;28;20044;-94
2022/02/12 07:50:26;;;;;;;9.90;4.95;;;;;;;8.41;76.47;99739.63;5081651;28;20075;-95
2022/02/12 07:52:53;;;;;;;8.30;5.20;;;;;;;8.46;76.12;99730.75;5082974;28;20037;-94
2022/02/12 07:55:19;;;;;;;7.88;4.78;;;;;;;8.68;73.88;99763.41;5081855;28;20049;-93
2022/02/12 07:57:46;;;;;;;9.63;5.00;;;;;;;8.63;72.86;99744.84;5082025;28;20470;-96
2022/02/12 08:00:14;;;;;;;9.15;4.05;;;;;;;8.74;70.96;99719.19;5079597;28;20118;-92
2022/02/12 08:02:40;;;;;;;6.78;3.53;;;;;;;9.00;69.94;99763.25;5081833;28;20532;-94
2022/02/12 08:05:08;;;;;;;9.35;5.05;;;;;;;8.93;69.18;99766.81;5083091;28;20048;-94
2022/02/12 08:07:37;;;;;;;9.63;4.40;;;;;;;8.94;68.41;99760.66;5079656;28;20094;-95
2022/02/12 08:11:22;;;;;;;12.00;3.47;;;;;;;8.97;68.21;99755.31;5080528;28;20036;-95
2022/02/12 08:12:52;;;;;;;8.35;3.70;;;;;;;9.09;67.79;99772.97;5080924;28;20052;-94
2022/02/12 08:15:18;;;;;;;7.63;3.90;;;;;;;9.07;67.26;99780.94;5082147;28;20044;-94
2022/02/12 08:17:44;;;;;;;8.48;3.40;;;;;;;9.16;66.60;99772.91;5081303;28;20045;-95
2022/02/12 08:20:12;;;;;;;6.78;3.10;;;;;;;9.30;65.45;99788.75;5083120;28;20082;-94
2022/02/12 08:22:39;;;;;;;8.20;3.13;;;;;;;9.20;66.06;99756.09;5084908;28;20037;-96
2022/02/12 08:25:07;;;;;;;7.00;3.17;;;;;;;9.27;65.20;99759.59;5081973;28;20110;-95
2022/02/12 08:27:33;;;;;;;10.70;4.47;;;;;;;9.39;65.49;99783.41;5082983;28;20090;-96
2022/02/12 08:29:59;;;;;;;7.00;3.08;;;;;;;9.39;64.89;99763.91;5083708;28;20070;-95
2022/02/12 08:32:27;;;;;;;7.65;3.25;;;;;;;9.62;64.13;99790.34;5083003;28;20498;-96
2022/02/12 08:34:53;;;;;;;5.25;3.55;;;;;;;9.65;64.27;99774.41;5087717;28;20048;-94
2022/02/12 08:37:21;;;;;;;7.57;3.22;;;;;;;9.79;63.89;99800.84;5084324;28;20047;-94
2022/02/12 08:39:49;;;;;;;8.00;3.30;;;;;;;9.63;63.95;99777.06;5083204;28;20049;-92
2022/02/12 08:42:15;;;;;;;7.65;3.08;;;;;;;9.86;63.88;99791.91;5080780;28;20072;-94
2022/02/12 08:44:41;;;;;;;7.93;2.78;;;;;;;9.88;62.37;99774.19;5080652;28;20089;-95
2022/02/12 08:47:09;;;;;;;8.18;2.97;;;;;;;9.83;62.70;99771.56;5079054;28;20076;-93
2022/02/12 08:49:35;;;;;;;6.70;2.90;;;;;;;9.96;63.26;99798.94;5079641;28;20131;-95
2022/02/12 08:52:01;;;;;;;6.30;3.20;;;;;;;9.86;64.20;99797.25;5080724;28;20400;-94
2022/02/12 08:54:29;;;;;;;5.63;2.90;;;;;;;10.00;62.58;99799.81;5082790;28;20044;-93
2022/02/12 08:56:56;;;;;;;5.05;2.75;;;;;;;9.90;62.43;99775.06;5083019;28;20131;-95
2022/02/12 08:59:22;;;;;;;8.52;3.40;;;;;;;9.86;62.65;99781.28;5081595;28;20113;-94
2022/02/12 09:01:49;;;;;;;10.75;3.28;;;;;;;9.77;62.18;99787.56;5080894;28;20131;-92
2022/02/12 09:04:15;;;;;;;6.97;3.88;;;;;;;10.11;62.44;99794.41;5080611;28;20040;-93
2022/02/12 09:06:42;;;;;;;7.80;3.85;;;;;;;10.25;60.97;99796.00;5079591;28;20040;-94
2022/02/12 09:09:09;;;;;;;5.30;2.90;;;;;;;10.42;60.96;99781.72;5078631;28;20044;-95
2022/02/12 09:11:38;;;;;;;5.43;2.95;;;;;;;10.32;59.56;99786.22;5079049;28;20083;-95
2022/02/12 09:14:05;;;;;;;6.93;2.85;;;;;;;10.12;59.96;99783.72;5078799;28;20068;-95
2022/02/12 09:16:30;;;;;;;8.25;2.90;;;;;;;10.13;59.22;99785.50;5078436;28;20566;-93
2022/02/12 09:18:56;;;;;;;8.20;3.10;;;;;;;10.30;59.95;99809.31;5078879;28;20064;-93
2022/02/12 09:21:23;;;;;;;5.72;3.33;;;;;;;10.11;60.08;99787.28;5079991;28;20127;-94
2022/02/12 09:23:50;;;;;;;6.43;2.85;;;;;;;10.28;58.98;99784.50;5080097;28;20040;-94
2022/02/12 09:26:17;;;;;;;7.57;3.17;;;;;;;10.26;59.93;99811.09;5079565;28;20544;-96
2022/02/12 09:28:45;;;;;;;7.63;3.60;;;;;;;10.27;59.03;99807.50;5079084;28;20040;-95
2022/02/12 09:31:10;;;;;;;8.75;3.30;;;;;;;10.06;59.16;99794.41;5076700;28;20061;-94
2022/02/12 09:33:36;;;;;;;10.13;2.90;;;;;;;10.05;59.10;99790.88;5078055;28;20043;-94
2022/02/12 09:36:04;;;;;;;5.70;2.92;;;;;;;10.46;57.95;99815.38;5076616;28;20037;-94
2022/02/12 09:38:30;;;;;;;3.75;2.70;;;;;;;10.75;57.03;99824.81;5075761;28;20045;-94
2022/02/12 09:40:57;;;;;;;6.03;2.88;;;;;;;10.71;56.54;99800.00;5076976;28;20094;-94
2022/02/12 09:43:24;;;;;;;5.43;2.90;;;;;;;10.75;56.19;99799.06;5076245;28;20044;-93
2022/02/12 09:46:04;;;;;;;10.13;3.40;;;;;;;10.58;56.06;99817.00;5077611;28;20097;-93
2022/02/12 09:48:31;;;;;;;6.85;2.95;;;;;;;10.55;56.69;99825.91;5077259;28;20406;-94
2022/02/12 09:50:59;;;;;;;9.50;5.18;;;;;;;10.51;56.28;99844.56;5076627;28;20529;-92
2022/02/12 09:53:25;;;;;;;7.00;3.25;;;;;;;10.29;56.98;99807.53;5078859;28;20040;-94
2022/02/12 09:55:51;;;;;;;6.43;2.80;;;;;;;10.54;57.03;99808.19;5077877;28;20053;-93
2022/02/12 09:58:18;;;;;;;7.55;3.15;;;;;;;10.55;55.70;99819.72;5078156;28;20047;-92
2022/02/12 10:00:44;;;;;;;4.68;3.03;;;;;;;10.66;56.35;99805.38;5078304;28;20047;-95
2022/02/12 10:03:11;;;;;;;5.32;2.60;;;;;;;10.72;54.79;99815.09;5076927;28;20036;-94
2022/02/12 10:05:39;;;;;;;6.63;2.72;;;;;;;10.63;55.51;99855.09;5077330;28;20068;-92
2022/02/12 10:08:12;;;;;;;7.38;3.50;;;;;;;10.30;56.23;99811.97;5059715;28;20094;-94
2022/02/12 10:10:40;;;;;;;6.38;3.15;;;;;;;10.44;55.77;99863.22;5076319;28;20058;-93
2022/02/12 10:13:13;;;;;;;6.72;3.10;;;;;;;10.37;55.30;99813.66;5075954;28;20044;-92
2022/02/12 10:15:40;;;;;;;6.63;2.75;;;;;;;10.53;55.43;99802.88;5076945;28;20136;-93
2022/02/12 10:18:06;;;;;;;9.10;2.90;;;;;;;10.59;55.02;99850.69;5075755;28;20043;-95
2022/02/12 10:20:35;;;;;;;5.75;3.10;;;;;;;10.50;55.78;99859.66;5077668;28;20104;-91
2022/02/12 10:23:12;;;;;;;7.57;3.50;;;;;;;10.61;54.59;99849.78;5064336;28;20045;-94
2022/02/12 10:25:40;;;;;;;5.78;2.70;;;;;;;10.77;55.21;99863.81;5076720;28;20045;-92
2022/02/12 10:28:07;;;;;;;8.30;3.40;;;;;;;10.95;55.17;99868.06;5074650;28;20040;-92
2022/02/12 10:30:34;;;;;;;11.00;3.50;;;;;;;10.86;54.38;99855.75;5073982;28;20493;-92
2022/02/12 10:33:02;;;;;;;7.65;2.67;;;;;;;10.76;54.23;99859.38;5074696;28;20040;-93
2022/02/12 10:35:29;;;;;;;7.10;3.10;;;;;;;10.36;55.24;99846.47;5077578;28;20071;-93
2022/02/12 10:38:02;;;;;;;10.18;2.78;;;;;;;10.73;55.02;99853.22;5075730;28;20489;-92
2022/02/12 10:40:29;;;;;;;8.00;3.00;;;;;;;10.55;54.86;99849.84;5074938;28;20044;-93
2022/02/12 10:42:56;;;;;;;5.40;3.35;;;;;;;10.32;54.78;99823.44;5075177;28;20037;-93
2022/02/12 10:45:26;;;;;;;6.03;3.10;;;;;;;10.43;54.89;99829.56;5075730;28;20468;-93
2022/02/12 10:47:53;;;;;;;6.82;3.03;;;;;;;10.51;55.14;99826.81;5074081;28;20098;-93
2022/02/12 10:50:23;;;;;;;5.53;2.83;;;;;;;10.75;54.14;99817.69;5074600;28;20489;-93
2022/02/12 10:52:52;;;;;;;7.15;2.60;;;;;;;11.05;54.48;99842.22;5078180;28;20044;-93
2022/02/12 10:55:31;;;;;;;6.88;3.33;;;;;;;11.08;53.85;99827.09;5074998;28;20049;-95
2022/02/12 10:58:03;;;;;;;5.38;2.83;;;;;;;10.83;53.61;99817.63;5074915;28;20037;-91
2022/02/12 11:00:31;;;;;;;6.10;3.47;;;;;;;10.57;53.84;99810.81;5076964;28;20056;-92
2022/02/12 11:03:00;;;;;;;7.93;3.58;;;;;;;10.52;54.26;99801.09;5075326;28;20494;-91
2022/02/12 11:05:27;;;;;;;9.35;3.20;;;;;;;10.04;55.01;99815.69;5073614;28;20049;-92
2022/02/12 11:07:53;;;;;;;6.85;3.55;;;;;;;10.37;54.39;99795.06;5074666;28;20037;-93
2022/02/12 11:10:21;;;;;;;6.57;3.50;;;;;;;10.77;53.70;99815.03;5075138;28;20040;-92
2022/02/12 11:12:48;;;;;;;7.47;3.58;;;;;;;10.54;54.13;99786.00;5076383;28;20044;-94
2022/02/12 11:15:15;;;;;;;6.03;3.28;;;;;;;10.63;53.71;99781.50;5073535;28;20102;-93
2022/02/12 11:18:00;;;;;;;6.57;3.40;;;;;;;10.68;53.51;99777.00;5076369;28;20037;-92
2022/02/12 11:20:34;;;;;;;8.95;4.28;;;;;;;10.80;53.01;99791.03;5079703;28;20103;-94
2022/02/12 11:23:34;;;;;;;9.18;4.40;;;;;;;10.85;52.90;99805.19;5078668;28;20135;-93
2022/02/12 11:30:14;;;;;;;10.52;5.82;;;;;;;10.74;52.70;99767.19;5077204;28;20025;-95
2022/02/12 11:32:44;;;;;;;6.78;4.10;;;;;;;10.93;52.75;99799.75;5072324;28;20134;-95
2022/02/12 11:35:31;;;;;;;10.82;6.40;;;;;;;10.64;52.98;99774.38;5080121;28;20127;-92
2022/02/12 11:38:02;;;;;;;9.48;6.13;;;;;;;10.89;52.53;99793.63;5077402;28;20095;-93
2022/02/12 11:40:39;;;;;;;9.35;4.63;;;;;;;10.81;51.91;99759.09;5078721;28;20428;-93
2022/02/12 11:43:37;;;;;;;5.35;3.15;;;;;;;10.89;52.18;99769.66;5074013;28;20044;-93
2022/02/12 11:46:32;;;;;;;7.32;3.78;;;;;;;10.80;52.92;99761.78;5077688;28;20076;-95